X  Schlie├čen METAR Luftfahrt Wetterdaten     KDNN Dalton Municipal Airport
Temperatur
17°C Temperatur
16°C Taupunkt
94% Feuchtigkeit



Wind
0 MPS
0 KM/S
0 M/S
0 KTS



Kein Wind
N
Aktuelle Wetterlage

Klar Klar
Luftdruck 1014.92 (hPa) - 29.97 (inHg)
Sichtweite 9 (Meile) - 14.5 (Km)
Flughafen
Flughafen Code KDNN

Position : Dalton Municipal Airport
Entfernung: 34 (mi)

Metar:
KDNN 051015Z AUTO 00000KT 9SM CLR 17/17 A2997 RMK AO2 T01680165

Zeit: 06-05-2023 06:15 EDT